Time;durP1;ratioP1;P1;durP2;ratioP2;P2;SDS_P1;SDS_P2;PMS_P1;PMS_P2;Temp;Humidity;BMP_temperature;BMP_pressure;BME280_temperature;BME280_humidity;BME280_pressure;Samples;Min_cycle;Max_cycle;Signal;HPM_P1;HPM_P2
2023/10/06 00:02:28;;;;;;;6.25;2.10;;;;;;;20.69;53.73;102525.84;5006870;28;20081;-37
2023/10/06 00:04:56;;;;;;;4.43;2.08;;;;;;;20.69;53.22;102523.13;5003667;28;20058;-37
2023/10/06 00:07:24;;;;;;;5.15;2.08;;;;;;;20.69;53.58;102515.06;4999100;28;20378;-37
2023/10/06 00:09:53;;;;;;;4.57;2.42;;;;;;;20.68;53.66;102513.34;5002809;28;20053;-37
2023/10/06 00:12:20;;;;;;;4.20;1.90;;;;;;;20.68;53.90;102510.66;5004614;28;20137;-37
2023/10/06 00:14:50;;;;;;;3.17;2.25;;;;;;;20.68;53.77;102509.81;5004903;28;20042;-37
2023/10/06 00:17:17;;;;;;;4.43;2.25;;;;;;;20.67;53.71;102502.72;5000840;28;20053;-37
2023/10/06 00:19:47;;;;;;;4.03;2.22;;;;;;;20.66;53.93;102518.03;5001056;28;20054;-37
2023/10/06 00:24:50;;;;;;;4.75;2.25;;;;;;;20.65;53.99;102518.16;5003389;28;20077;-37
2023/10/06 00:27:29;;;;;;;6.20;2.50;;;;;;;20.64;53.74;102517.28;4999669;28;20425;-37
2023/10/06 00:29:56;;;;;;;3.45;1.88;;;;;;;20.64;53.42;102514.59;4999550;28;20427;-37
2023/10/06 00:32:26;;;;;;;4.85;2.38;;;;;;;20.63;53.85;102510.19;5005852;28;20056;-37
2023/10/06 00:34:54;;;;;;;4.78;1.95;;;;;;;20.62;53.83;102505.81;5007508;28;20134;-37
2023/10/06 00:37:24;;;;;;;7.10;2.63;;;;;;;20.62;53.45;102508.50;5002885;28;20053;-37
2023/10/06 00:39:54;;;;;;;5.78;2.30;;;;;;;20.61;54.03;102522.94;5001643;28;20058;-37
2023/10/06 00:42:26;;;;;;;6.28;2.47;;;;;;;20.61;53.59;102517.53;4998818;28;20092;-37
2023/10/06 00:44:53;;;;;;;4.03;1.80;;;;;;;20.61;53.76;102514.84;5002586;28;20422;-37
2023/10/06 00:47:21;;;;;;;6.20;2.80;;;;;;;20.61;53.96;102506.78;5004853;28;20053;-37
2023/10/06 00:49:48;;;;;;;6.05;2.35;;;;;;;20.60;54.05;102499.69;5002538;28;20054;-37
2023/10/06 00:52:15;;;;;;;2.75;1.80;;;;;;;20.60;53.70;102502.38;5000543;28;20060;-37
2023/10/06 00:54:43;;;;;;;4.88;2.20;;;;;;;20.60;53.54;102493.44;5004065;28;20049;-37
2023/10/06 00:57:12;;;;;;;4.65;2.13;;;;;;;20.59;53.69;102489.91;5003338;28;20073;-37
2023/10/06 00:59:41;;;;;;;5.88;1.90;;;;;;;20.58;53.71;102485.50;5001480;28;20066;-37
2023/10/06 01:02:11;;;;;;;4.85;2.72;;;;;;;20.58;54.13;102492.69;4996317;28;20130;-37
2023/10/06 01:04:45;;;;;;;5.72;1.98;;;;;;;20.58;53.71;102484.63;4999432;28;20108;-37
2023/10/06 01:07:13;;;;;;;3.35;2.13;;;;;;;20.57;53.67;102480.22;5002688;28;20126;-37
2023/10/06 01:09:57;;;;;;;3.58;2.00;;;;;;;20.55;53.43;102476.81;5002029;28;20052;-37
2023/10/06 01:12:26;;;;;;;2.92;2.00;;;;;;;20.56;53.90;102467.75;4995900;28;20680;-37
2023/10/06 01:15:05;;;;;;;4.68;2.10;;;;;;;20.55;53.38;102461.50;5000365;28;20432;-37
2023/10/06 01:17:32;;;;;;;5.90;2.17;;;;;;;20.53;53.97;102452.69;5001194;28;20046;-37
2023/10/06 01:19:59;;;;;;;4.53;1.95;;;;;;;20.53;53.43;102457.22;5002445;28;20057;-37
2023/10/06 01:22:30;;;;;;;4.80;2.15;;;;;;;20.52;53.83;102456.38;5001238;28;20120;-37
2023/10/06 01:25:04;;;;;;;3.95;2.17;;;;;;;20.52;53.75;102455.53;4999087;28;20120;-37
2023/10/06 01:27:31;;;;;;;5.78;2.13;;;;;;;20.51;53.94;102454.69;5003265;28;20132;-37
2023/10/06 01:32:44;;;;;;;4.32;2.03;;;;;;;20.51;53.84;102464.59;5002913;28;20050;-37
2023/10/06 01:35:18;;;;;;;6.15;1.85;;;;;;;20.50;53.43;102465.56;5003569;28;20129;-37
2023/10/06 01:37:48;;;;;;;4.15;1.77;;;;;;;20.48;53.94;102457.59;5001263;28;20426;-37
2023/10/06 01:40:43;;;;;;;3.70;1.90;;;;;;;20.48;54.02;102465.66;5003564;28;20133;-37
2023/10/06 01:43:09;;;;;;;5.20;1.80;;;;;;;20.47;53.52;102463.97;5003606;28;20046;-37
2023/10/06 01:45:43;;;;;;;3.47;1.60;;;;;;;20.46;53.71;102463.13;4996734;28;21782;-37
2023/10/06 01:50:41;;;;;;;4.25;1.70;;;;;;;20.46;53.48;102470.31;4999042;28;20049;-37
2023/10/06 01:53:11;;;;;;;4.15;2.55;;;;;;;20.46;53.36;102473.00;4997079;28;20047;-37
2023/10/06 01:55:38;;;;;;;4.18;1.95;;;;;;;20.46;53.46;102483.78;4997114;28;20050;-37
2023/10/06 01:58:11;;;;;;;5.47;2.25;;;;;;;20.45;54.18;102484.78;4997487;28;20135;-37
2023/10/06 02:00:38;;;;;;;5.20;2.10;;;;;;;20.46;53.89;102491.88;4999623;28;20050;-37
2023/10/06 02:03:10;;;;;;;3.05;1.98;;;;;;;20.45;54.00;102493.72;4999930;28;20050;-37
2023/10/06 02:05:40;;;;;;;4.85;2.10;;;;;;;20.46;53.69;102489.16;5000895;28;20058;-37
2023/10/06 02:08:09;;;;;;;4.55;1.80;;;;;;;20.45;54.29;102493.72;4999590;28;20093;-37
2023/10/06 02:10:37;;;;;;;5.15;1.98;;;;;;;20.45;53.50;102476.69;4997895;28;20053;-37
2023/10/06 02:13:07;;;;;;;3.45;1.92;;;;;;;20.44;53.65;102470.47;5005719;28;20056;-37
2023/10/06 02:15:34;;;;;;;7.13;2.38;;;;;;;20.43;54.32;102462.53;5003387;28;20077;-37
2023/10/06 02:18:01;;;;;;;8.20;2.10;;;;;;;20.44;54.23;102461.53;4998069;28;20046;-37
2023/10/06 02:22:57;;;;;;;4.43;1.98;;;;;;;20.42;53.66;102461.66;4999984;28;20046;-37
2023/10/06 02:25:25;;;;;;;3.83;2.08;;;;;;;20.41;53.79;102456.41;4999668;28;20480;-37
2023/10/06 02:27:53;;;;;;;4.82;2.17;;;;;;;20.41;53.74;102459.94;5001937;28;20054;-37
2023/10/06 02:30:33;;;;;;;3.72;1.95;;;;;;;20.41;53.85;102465.31;4999135;28;20057;-37
2023/10/06 02:33:00;;;;;;;4.57;1.90;;;;;;;20.41;54.33;102469.88;5001377;28;20061;-37
2023/10/06 02:35:27;;;;;;;3.33;1.85;;;;;;;20.40;53.59;102458.25;4998703;28;20388;-37
2023/10/06 02:37:57;;;;;;;3.50;1.73;;;;;;;20.40;54.26;102462.78;4998496;28;20044;-37
2023/10/06 02:40:31;;;;;;;4.85;1.73;;;;;;;20.39;53.93;102461.94;4999408;28;20058;-37
2023/10/06 02:43:00;;;;;;;4.15;1.70;;;;;;;20.39;53.73;102461.94;4997597;28;20430;-37
2023/10/06 02:45:37;;;;;;;4.72;2.00;;;;;;;20.41;54.02;102456.41;5002954;28;20086;-37
2023/10/06 02:48:14;;;;;;;2.80;1.95;;;;;;;20.40;53.66;102457.38;5003623;28;20362;-37
2023/10/06 02:50:45;;;;;;;6.13;2.08;;;;;;;20.38;54.10;102449.44;5000722;28;20057;-37
2023/10/06 02:53:15;;;;;;;4.18;2.08;;;;;;;20.38;53.87;102448.56;5006979;28;20374;-37
2023/10/06 02:55:45;;;;;;;4.85;1.80;;;;;;;20.38;54.15;102435.97;5004414;28;20108;-37
2023/10/06 02:58:23;;;;;;;4.75;2.08;;;;;;;20.36;54.27;102435.25;5004594;28;20065;-37
2023/10/06 03:00:50;;;;;;;3.25;1.83;;;;;;;20.36;54.33;102429.84;5003612;28;20404;-37
2023/10/06 03:03:22;;;;;;;4.13;1.90;;;;;;;20.36;54.30;102429.00;5001956;28;20054;-37
2023/10/06 03:05:52;;;;;;;4.28;2.10;;;;;;;20.35;53.62;102422.78;5005255;28;20046;-37
2023/10/06 03:08:25;;;;;;;5.75;2.03;;;;;;;20.35;53.84;102419.22;5003396;28;20129;-37
2023/10/06 03:10:52;;;;;;;4.72;1.75;;;;;;;20.34;54.14;102420.19;5004055;28;20050;-37
2023/10/06 03:13:33;;;;;;;4.95;1.65;;;;;;;20.33;54.10;102418.50;5003221;28;20047;-37
2023/10/06 03:16:00;;;;;;;5.03;1.90;;;;;;;20.33;54.34;102422.03;5007543;28;20058;-37
2023/10/06 03:18:28;;;;;;;2.83;1.70;;;;;;;20.33;53.89;102415.78;5005890;28;20128;-37
2023/10/06 03:21:00;;;;;;;3.13;1.67;;;;;;;20.32;54.20;102423.03;5005024;28;20201;-37
2023/10/06 03:23:29;;;;;;;4.90;1.80;;;;;;;20.32;53.67;102422.19;5008914;28;20155;-37
2023/10/06 03:25:56;;;;;;;4.82;1.80;;;;;;;20.31;54.07;102412.41;4999817;28;20103;-37
2023/10/06 03:28:50;;;;;;;4.72;1.60;;;;;;;20.30;53.88;102408.84;5003133;28;20549;-37
2023/10/06 03:33:46;;;;;;;3.72;1.70;;;;;;;20.30;54.02;102402.59;5002584;28;20136;-37
2023/10/06 03:36:16;;;;;;;3.10;1.58;;;;;;;20.29;53.76;102403.59;5006176;28;20077;-37
2023/10/06 03:38:55;;;;;;;3.88;2.13;;;;;;;20.28;54.41;102409.97;5003690;28;20178;-37
2023/10/06 03:41:31;;;;;;;4.65;1.80;;;;;;;20.28;53.68;102412.66;5002563;28;20080;-37
2023/10/06 03:44:03;;;;;;;6.22;1.98;;;;;;;20.27;54.18;102419.03;5004055;28;20513;-37
2023/10/06 03:46:38;;;;;;;7.18;1.83;;;;;;;20.27;54.21;102414.50;5001473;28;20061;-37
2023/10/06 03:49:05;;;;;;;3.47;1.63;;;;;;;20.26;53.94;102406.53;5004641;28;20664;-37
2023/10/06 03:51:38;;;;;;;2.40;1.58;;;;;;;20.23;53.88;102401.44;5002536;28;20061;-37
2023/10/06 03:54:07;;;;;;;5.75;1.90;;;;;;;20.25;53.73;102404.81;5005787;28;20085;-37
2023/10/06 03:56:34;;;;;;;2.88;1.42;;;;;;;20.23;53.83;102401.44;5005348;28;20042;-37
2023/10/06 03:59:00;;;;;;;3.25;1.60;;;;;;;20.23;54.37;102412.19;5005663;28;20399;-37
2023/10/06 04:01:31;;;;;;;5.00;2.03;;;;;;;20.22;53.72;102405.94;5004253;28;20045;-37
2023/10/06 04:04:00;;;;;;;3.38;1.80;;;;;;;20.23;53.63;102414.88;4998341;28;20331;-37
2023/10/06 04:06:27;;;;;;;3.45;2.00;;;;;;;20.24;54.15;102408.50;5002300;28;20054;-37
2023/10/06 04:08:56;;;;;;;4.75;1.80;;;;;;;20.23;53.76;102406.81;5000397;28;20045;-37
2023/10/06 04:11:24;;;;;;;3.50;1.92;;;;;;;20.23;54.22;102406.81;4996337;28;20046;-37
2023/10/06 04:13:50;;;;;;;3.58;1.60;;;;;;;20.21;53.86;102398.84;5000703;28;20054;-37
2023/10/06 04:16:17;;;;;;;3.85;2.15;;;;;;;20.20;54.21;102389.91;5002626;28;20076;-37
2023/10/06 04:18:47;;;;;;;3.30;1.83;;;;;;;20.20;53.89;102381.00;5005246;28;20117;-37
2023/10/06 04:21:15;;;;;;;4.32;2.00;;;;;;;20.20;54.34;102383.69;5004937;28;20050;-37
2023/10/06 04:23:42;;;;;;;4.90;2.05;;;;;;;20.19;54.05;102385.53;5000392;28;20054;-37
2023/10/06 04:26:10;;;;;;;3.97;1.77;;;;;;;20.19;54.48;102379.28;5007174;28;20066;-37
2023/10/06 04:28:37;;;;;;;3.08;1.58;;;;;;;20.19;53.69;102384.69;5000725;28;20050;-37
2023/10/06 04:31:07;;;;;;;4.75;1.73;;;;;;;20.18;53.73;102389.22;5001195;28;20346;-37
2023/10/06 04:33:34;;;;;;;5.20;1.90;;;;;;;20.17;54.20;102386.63;5001391;28;20328;-37
2023/10/06 04:36:07;;;;;;;5.07;2.40;;;;;;;20.16;54.04;102385.78;5001311;28;20080;-37
2023/10/06 04:38:37;;;;;;;5.18;2.20;;;;;;;20.16;54.33;102383.09;4999789;28;20042;-37
2023/10/06 04:41:08;;;;;;;5.20;2.25;;;;;;;20.16;54.23;102383.09;5004749;28;20046;-37
2023/10/06 04:43:36;;;;;;;4.97;2.20;;;;;;;20.17;53.87;102383.94;5000667;28;20058;-37
2023/10/06 04:46:06;;;;;;;7.85;2.50;;;;;;;20.16;53.86;102382.22;5000092;28;20421;-37
2023/10/06 04:48:35;;;;;;;4.07;1.70;;;;;;;20.16;54.18;102368.78;5000976;28;20357;-37
2023/10/06 04:51:06;;;;;;;6.90;2.15;;;;;;;20.16;53.72;102366.09;5014930;28;20670;-37
2023/10/06 04:53:36;;;;;;;4.13;2.08;;;;;;;20.16;53.82;102371.47;5003526;28;20057;-37
2023/10/06 04:56:04;;;;;;;4.65;2.10;;;;;;;20.14;54.45;102366.22;5000933;28;20050;-37
2023/10/06 04:58:31;;;;;;;4.07;2.30;;;;;;;20.14;53.87;102371.59;5004527;28;20391;-37
2023/10/06 05:01:01;;;;;;;4.25;2.20;;;;;;;20.14;54.22;102368.91;5000609;28;20140;-37
2023/10/06 05:03:27;;;;;;;4.13;1.90;;;;;;;20.13;54.35;102359.09;5005733;28;20049;-37
2023/10/06 05:05:55;;;;;;;4.75;1.88;;;;;;;20.14;54.29;102362.66;5004794;28;20542;-37
2023/10/06 05:08:24;;;;;;;3.92;2.20;;;;;;;20.14;53.59;102349.19;4993861;28;20604;-37
2023/10/06 05:10:52;;;;;;;6.00;2.10;;;;;;;20.13;53.77;102348.34;4999734;28;20050;-37
2023/10/06 05:13:20;;;;;;;6.60;2.70;;;;;;;20.12;54.58;102352.03;5001392;28;20049;-37
2023/10/06 05:15:47;;;;;;;4.88;2.50;;;;;;;20.13;54.04;102358.25;5006853;28;20046;-37
2023/10/06 05:18:16;;;;;;;4.22;2.20;;;;;;;20.12;54.00;102365.50;5003114;28;20046;-37
2023/10/06 05:20:43;;;;;;;6.88;2.30;;;;;;;20.13;53.94;102366.34;5004900;28;20137;-37
2023/10/06 05:23:14;;;;;;;3.72;2.20;;;;;;;20.12;53.99;102361.94;5007082;28;20105;-37
2023/10/06 05:25:42;;;;;;;7.70;2.30;;;;;;;20.11;54.46;102368.31;4999388;28;20054;-37
2023/10/06 05:28:10;;;;;;;8.77;2.42;;;;;;;20.10;53.96;102362.09;5001973;28;20097;-37
2023/10/06 05:30:38;;;;;;;5.78;2.47;;;;;;;20.11;53.94;102360.25;4999052;28;20052;-37
2023/10/06 05:33:05;;;;;;;4.85;2.00;;;;;;;20.10;54.04;102356.69;4996795;28;20474;-37
2023/10/06 05:35:46;;;;;;;6.50;2.67;;;;;;;20.10;54.24;102358.50;4999848;28;20057;-37
2023/10/06 05:38:15;;;;;;;5.93;2.10;;;;;;;20.10;53.62;102359.41;5002406;28;20145;-37
2023/10/06 05:40:46;;;;;;;5.88;2.08;;;;;;;20.10;53.87;102351.31;5000719;28;20048;-37
2023/10/06 05:43:15;;;;;;;4.88;2.30;;;;;;;20.10;53.83;102348.63;5003575;28;20052;-37
2023/10/06 05:45:57;;;;;;;5.97;2.10;;;;;;;20.10;53.78;102353.13;5000621;28;20108;-36
2023/10/06 05:48:28;;;;;;;7.68;2.00;;;;;;;20.11;54.04;102346.78;5006309;28;20300;-35
2023/10/06 05:51:04;;;;;;;7.93;2.42;;;;;;;20.12;53.73;102367.31;5002012;28;20058;-36
2023/10/06 05:53:38;;;;;;;4.50;1.98;;;;;;;20.12;53.83;102370.88;5000868;28;20045;-36
2023/10/06 05:56:08;;;;;;;4.32;2.40;;;;;;;20.13;54.07;102374.41;5001741;28;20088;-36
2023/10/06 05:58:37;;;;;;;6.05;2.15;;;;;;;20.13;53.80;102374.41;5000722;28;20135;-36
2023/10/06 06:01:10;;;;;;;5.15;2.53;;;;;;;20.13;53.84;102383.34;5001256;28;20056;-36
2023/10/06 06:03:47;;;;;;;5.60;2.47;;;;;;;20.14;54.13;102384.19;5002664;28;20088;-36
2023/10/06 06:06:15;;;;;;;5.65;2.90;;;;;;;20.13;53.70;102386.03;4998249;28;20124;-36
2023/10/06 06:08:47;;;;;;;6.22;2.42;;;;;;;20.13;53.77;102375.25;4996247;28;20046;-36
2023/10/06 06:11:15;;;;;;;6.35;2.17;;;;;;;20.13;53.53;102372.56;5002407;28;20077;-36
2023/10/06 06:13:42;;;;;;;6.82;2.60;;;;;;;20.13;53.64;102366.34;4999578;28;20042;-36
2023/10/06 06:16:10;;;;;;;6.15;2.58;;;;;;;20.12;54.11;102368.19;4999044;28;20180;-36
2023/10/06 06:18:42;;;;;;;4.38;2.88;;;;;;;20.12;54.16;102370.88;4998663;28;20054;-36
2023/10/06 06:21:12;;;;;;;5.07;2.70;;;;;;;20.11;54.18;102371.84;5004806;28;20082;-36
2023/10/06 06:23:39;;;;;;;5.18;2.22;;;;;;;20.11;54.44;102366.47;5001405;28;20054;-36
2023/10/06 06:26:07;;;;;;;5.88;2.63;;;;;;;20.12;54.24;102362.78;5006052;28;20057;-36
2023/10/06 06:28:35;;;;;;;6.40;2.58;;;;;;;20.12;54.27;102361.94;5004747;28;20091;-36
2023/10/06 06:31:04;;;;;;;7.95;2.85;;;;;;;20.10;53.60;102362.09;4999898;28;20051;-36
2023/10/06 06:33:32;;;;;;;7.80;3.17;;;;;;;20.10;54.47;102359.41;4999369;28;20042;-36
2023/10/06 06:36:00;;;;;;;6.15;2.53;;;;;;;20.10;54.11;102362.09;5003127;28;20062;-36
2023/10/06 06:38:28;;;;;;;6.65;2.78;;;;;;;20.10;54.17;102364.78;5003368;28;20077;-36
2023/10/06 06:40:58;;;;;;;5.53;2.90;;;;;;;20.10;54.31;102355.81;4998776;28;20066;-36
2023/10/06 06:43:26;;;;;;;6.40;2.70;;;;;;;20.11;54.29;102366.47;4998919;28;20485;-36
2023/10/06 06:45:53;;;;;;;5.70;2.40;;;;;;;20.11;54.06;102369.16;5002745;28;20081;-36
2023/10/06 06:48:20;;;;;;;6.07;2.28;;;;;;;20.12;53.51;102367.31;5001368;28;20049;-36
2023/10/06 06:50:48;;;;;;;8.73;2.78;;;;;;;20.12;54.19;102373.56;5002669;28;20052;-36
2023/10/06 06:53:18;;;;;;;7.68;2.97;;;;;;;20.13;54.37;102371.72;4999416;28;20563;-36
2023/10/06 06:55:46;;;;;;;8.13;3.08;;;;;;;20.13;53.56;102375.25;4999892;28;20050;-36
2023/10/06 06:58:16;;;;;;;4.53;2.50;;;;;;;20.13;53.85;102383.34;5004333;28;20039;-36
2023/10/06 07:00:43;;;;;;;6.22;2.53;;;;;;;20.14;54.04;102385.06;5004977;28;20547;-36
2023/10/06 07:03:10;;;;;;;7.25;2.83;;;;;;;20.15;53.99;102386.78;4998755;28;20165;-36
2023/10/06 07:05:39;;;;;;;4.65;2.88;;;;;;;20.15;53.57;102386.78;5002581;28;20081;-36
2023/10/06 07:08:06;;;;;;;5.07;2.95;;;;;;;20.15;54.35;102384.06;4999470;28;20081;-36
2023/10/06 07:10:38;;;;;;;6.95;2.85;;;;;;;20.16;53.86;102383.09;4998982;28;20042;-36
2023/10/06 07:13:05;;;;;;;6.63;2.88;;;;;;;20.18;53.47;102382.94;4997560;28;20369;-36
2023/10/06 07:15:33;;;;;;;7.32;2.75;;;;;;;20.16;54.13;102380.38;4998496;28;20054;-36
2023/10/06 07:18:00;;;;;;;4.47;2.50;;;;;;;20.17;53.89;102373.16;5003719;28;20056;-36
2023/10/06 07:20:29;;;;;;;5.28;2.70;;;;;;;20.17;54.22;102374.03;4998906;28;20473;-36
2023/10/06 07:23:00;;;;;;;6.07;2.97;;;;;;;20.19;53.86;102376.59;4998221;28;20052;-36
2023/10/06 07:25:28;;;;;;;7.13;3.05;;;;;;;20.20;54.03;102375.59;5003740;28;20046;-36
2023/10/06 07:27:59;;;;;;;6.70;3.25;;;;;;;20.19;53.79;102374.75;4999581;28;20046;-36
2023/10/06 07:30:28;;;;;;;7.03;3.00;;;;;;;20.21;54.25;102385.38;5002121;28;20466;-36
2023/10/06 07:32:55;;;;;;;5.15;2.60;;;;;;;20.22;54.11;102381.69;4998064;28;20062;-36
2023/10/06 07:35:43;;;;;;;5.55;2.63;;;;;;;20.23;53.98;102385.28;4996804;28;20061;-36
2023/10/06 07:38:10;;;;;;;5.93;2.97;;;;;;;20.24;53.63;102384.28;5004346;28;20378;-36
2023/10/06 07:40:38;;;;;;;7.88;2.80;;;;;;;20.24;54.10;102403.97;4999880;28;20105;-36
2023/10/06 07:43:07;;;;;;;7.72;2.80;;;;;;;20.26;53.48;102403.84;5004544;28;20527;-36
2023/10/06 07:45:34;;;;;;;7.55;2.85;;;;;;;20.27;53.89;102397.50;5005967;28;20042;-36
2023/10/06 07:48:01;;;;;;;9.48;3.00;;;;;;;20.28;53.87;102391.97;5001008;28;20061;-36
2023/10/06 07:50:28;;;;;;;5.10;2.67;;;;;;;20.28;53.74;102389.28;5003063;28;20129;-36
2023/10/06 07:52:56;;;;;;;6.18;2.88;;;;;;;20.30;53.84;102405.28;5001003;28;20054;-36
2023/10/06 07:55:23;;;;;;;8.85;3.22;;;;;;;20.32;53.38;102392.56;4999977;28;20108;-36
2023/10/06 07:57:50;;;;;;;7.50;3.13;;;;;;;20.34;53.60;102404.91;5010678;28;20351;-36
2023/10/06 08:00:29;;;;;;;7.03;2.90;;;;;;;20.36;53.68;102402.09;4999743;28;20457;-36
2023/10/06 08:03:00;;;;;;;6.72;3.10;;;;;;;20.38;54.19;102397.41;5006515;28;20061;-36
2023/10/06 08:05:28;;;;;;;8.30;3.20;;;;;;;20.41;53.79;102402.53;5007939;28;20043;-36
2023/10/06 08:08:00;;;;;;;7.72;3.05;;;;;;;20.41;53.72;102406.06;5004910;28;20136;-36
2023/10/06 08:10:30;;;;;;;8.10;3.10;;;;;;;20.43;53.35;102403.28;4999340;28;20133;-36
2023/10/06 08:13:00;;;;;;;7.35;3.17;;;;;;;20.44;53.65;102397.75;5005238;28;20397;-36
2023/10/06 08:15:28;;;;;;;6.53;2.83;;;;;;;20.45;53.27;102396.75;5004795;28;20639;-37
2023/10/06 08:17:58;;;;;;;9.23;2.72;;;;;;;20.46;53.64;102406.56;5002900;28;20046;-36
2023/10/06 08:20:25;;;;;;;8.60;3.33;;;;;;;20.46;53.84;102416.44;5003578;28;20049;-36
2023/10/06 08:22:53;;;;;;;5.90;3.33;;;;;;;20.48;53.84;102417.19;5003405;28;20058;-36
2023/10/06 08:25:22;;;;;;;7.25;3.15;;;;;;;20.48;53.14;102417.19;5003008;28;20076;-36
2023/10/06 08:27:50;;;;;;;7.78;3.15;;;;;;;20.50;53.26;102411.69;5003694;28;20108;-36
2023/10/06 08:30:19;;;;;;;7.50;3.20;;;;;;;20.50;53.34;102414.38;5004734;28;20085;-36
2023/10/06 08:32:52;;;;;;;7.15;3.30;;;;;;;20.50;53.09;102409.00;5000369;28;20153;-36
2023/10/06 08:35:20;;;;;;;;;;;;;;;20.50;53.35;102395.53;5004964;28;20407;-36
2023/10/06 08:37:48;;;;;;;5.03;2.47;;;;;;;20.53;53.74;102401.50;5005497;28;19926;-36
2023/10/06 08:40:16;;;;;;;6.80;2.92;;;;;;;20.53;53.85;102408.75;5002484;28;20038;-36
2023/10/06 08:42:56;;;;;;;6.80;3.13;;;;;;;20.54;53.68;102411.28;4998891;28;20426;-36
2023/10/06 08:45:25;;;;;;;8.27;2.30;;;;;;;20.55;53.36;102404.09;5003600;28;20046;-36
2023/10/06 08:47:59;;;;;;;6.05;2.80;;;;;;;20.55;53.34;102401.41;4998845;28;20141;-36
2023/10/06 08:50:33;;;;;;;6.32;2.95;;;;;;;20.57;53.84;102411.03;5001778;28;20341;-36
2023/10/06 08:53:01;;;;;;;5.95;2.53;;;;;;;20.59;53.66;102414.47;5003437;28;20404;-36
2023/10/06 08:55:28;;;;;;;11.32;3.15;;;;;;;20.59;53.70;102414.47;5002520;28;20054;-36
2023/10/06 08:58:00;;;;;;;6.07;3.20;;;;;;;20.61;53.83;102412.47;5003709;28;20104;-36
2023/10/06 09:00:35;;;;;;;5.85;3.00;;;;;;;20.63;53.94;102413.22;5005405;28;20042;-36
2023/10/06 09:03:08;;;;;;;9.73;3.15;;;;;;;20.65;53.39;102413.91;5002928;28;20101;-36
2023/10/06 09:05:41;;;;;;;6.15;3.40;;;;;;;20.67;53.67;102411.09;5002483;28;20136;-36
2023/10/06 09:08:14;;;;;;;7.20;3.20;;;;;;;20.68;53.64;102405.56;5000884;28;20108;-37
2023/10/06 09:10:49;;;;;;;7.07;2.78;;;;;;;20.70;54.11;102406.31;5003840;28;20096;-37
2023/10/06 09:13:21;;;;;;;7.22;2.83;;;;;;;20.73;53.40;102409.72;5003813;28;20430;-37
2023/10/06 09:16:04;;;;;;;5.38;2.75;;;;;;;20.74;53.62;102406.03;5006368;28;20046;-37
2023/10/06 09:18:34;;;;;;;5.32;2.83;;;;;;;20.76;53.62;102410.31;5004385;28;20068;-37
2023/10/06 09:21:27;;;;;;;5.63;2.80;;;;;;;20.77;53.72;102411.16;5000917;28;20093;-37
2023/10/06 09:24:00;;;;;;;8.27;2.35;;;;;;;20.81;53.42;102407.19;5000060;28;20097;-37
2023/10/06 09:26:29;;;;;;;7.25;2.65;;;;;;;20.82;53.78;102407.06;5001070;28;20410;-37
2023/10/06 09:28:59;;;;;;;5.65;2.60;;;;;;;20.84;53.68;102399.72;5004569;28;20069;-37
2023/10/06 09:31:44;;;;;;;8.05;3.05;;;;;;;20.87;53.74;102398.59;5003346;28;20355;-37
2023/10/06 09:34:11;;;;;;;4.35;2.13;;;;;;;20.91;53.20;102403.56;5002120;28;20072;-37
2023/10/06 09:36:42;;;;;;;6.43;2.63;;;;;;;20.95;53.02;102396.06;5002538;28;20050;-37
2023/10/06 09:39:17;;;;;;;5.13;2.25;;;;;;;20.98;53.46;102398.47;4999362;28;20126;-37
2023/10/06 09:41:47;;;;;;;4.63;2.38;;;;;;;21.02;52.96;102399.91;5003286;28;20057;-37
2023/10/06 09:44:18;;;;;;;4.32;2.30;;;;;;;21.05;53.19;102398.81;5001304;28;20426;-37
2023/10/06 09:46:46;;;;;;;4.13;2.20;;;;;;;21.06;53.19;102392.41;4999324;28;20120;-37
2023/10/06 09:49:18;;;;;;;7.68;2.40;;;;;;;21.08;52.78;102388.59;5002446;28;20046;-37
2023/10/06 09:51:45;;;;;;;4.80;2.63;;;;;;;21.09;52.99;102384.91;5005209;28;20100;-37
2023/10/06 09:54:14;;;;;;;4.47;1.92;;;;;;;21.11;53.17;102385.66;4998219;28;20046;-37
2023/10/06 09:56:41;;;;;;;3.85;1.80;;;;;;;21.13;53.18;102390.88;4999822;28;20441;-37
2023/10/06 09:59:12;;;;;;;4.60;2.58;;;;;;;21.14;53.14;102392.59;4999404;28;20427;-37
2023/10/06 10:01:42;;;;;;;6.65;2.28;;;;;;;21.14;53.22;102377.25;5002360;28;20046;-37
2023/10/06 10:04:12;;;;;;;6.30;2.72;;;;;;;21.15;53.21;102383.53;5000435;28;20705;-37
2023/10/06 10:06:43;;;;;;;6.55;3.13;;;;;;;21.16;52.74;102394.16;4998238;28;20050;-37
2023/10/06 10:09:17;;;;;;;5.82;2.70;;;;;;;21.17;52.91;102382.38;4996143;28;20049;-37
2023/10/06 10:11:54;;;;;;;7.75;3.00;;;;;;;21.18;53.12;102383.22;4995783;28;20053;-35
2023/10/06 10:14:38;;;;;;;6.10;2.47;;;;;;;21.18;53.30;102388.63;4999285;28;20393;-38
2023/10/06 10:17:35;;;;;;;7.50;2.65;;;;;;;21.18;53.14;102392.16;4996897;28;20046;-38
2023/10/06 10:20:09;;;;;;;7.70;2.88;;;;;;;21.20;53.25;102390.22;4999941;28;20318;-37
2023/10/06 10:22:36;;;;;;;7.55;2.58;;;;;;;21.24;53.22;102400.72;5000462;28;20046;-38
2023/10/06 10:25:05;;;;;;;6.32;2.60;;;;;;;21.23;53.35;102386.41;5002602;28;20073;-37
2023/10/06 10:28:27;;;;;;;4.45;2.28;;;;;;;21.24;53.09;102381.84;5004373;28;20132;-37
2023/10/06 10:30:58;;;;;;;8.57;3.05;;;;;;;21.27;53.15;102387.81;5008862;28;20049;-37
2023/10/06 10:33:30;;;;;;;6.05;2.60;;;;;;;21.28;53.03;102383.28;5002393;28;20054;-38
2023/10/06 10:36:12;;;;;;;5.47;2.53;;;;;;;21.29;52.88;102393.06;5008330;28;20050;-37
2023/10/06 10:38:40;;;;;;;5.38;2.05;;;;;;;21.30;53.22;102384.81;5000559;28;20057;-37
2023/10/06 10:41:08;;;;;;;4.35;2.30;;;;;;;21.31;53.35;102380.31;5004900;28;20352;-37
2023/10/06 10:43:38;;;;;;;6.18;2.83;;;;;;;21.31;53.27;102393.81;5001396;28;20077;-37
2023/10/06 10:46:06;;;;;;;6.80;2.92;;;;;;;21.32;53.22;102380.19;5003950;28;20058;-37
2023/10/06 10:49:08;;;;;;;5.00;2.67;;;;;;;21.33;53.42;102387.28;5001962;28;20046;-37
2023/10/06 10:51:27;;;;;;;5.65;2.67;;;;;;;21.35;53.24;102376.38;5000468;28;20105;-37
2023/10/06 10:53:54;;;;;;;7.28;3.28;;;;;;;21.35;53.41;102369.13;5000688;28;20136;-37
2023/10/06 10:56:34;;;;;;;6.93;3.10;;;;;;;21.35;53.69;102369.13;5000885;28;20050;-37
2023/10/06 10:59:02;;;;;;;6.07;3.00;;;;;;;21.37;53.30;102371.69;5003121;28;20073;-37
2023/10/06 11:01:38;;;;;;;5.97;3.10;;;;;;;21.37;53.61;102372.53;5000579;28;20042;-37
2023/10/06 11:04:53;;;;;;;6.22;2.80;;;;;;;21.38;53.42;102381.47;5002977;28;20105;-37
2023/10/06 11:07:11;;;;;;;6.25;2.80;;;;;;;21.39;53.05;102370.56;4997548;28;20461;-38
2023/10/06 11:09:46;;;;;;;5.80;2.92;;;;;;;21.42;53.42;102380.22;5002107;28;20050;-37
2023/10/06 11:12:16;;;;;;;4.78;2.90;;;;;;;21.42;53.02;102364.88;5005495;28;20238;-37
2023/10/06 11:14:51;;;;;;;7.07;2.63;;;;;;;21.43;53.38;102363.91;5002928;28;20129;-37
2023/10/06 11:17:24;;;;;;;7.68;2.63;;;;;;;21.46;53.25;102370.84;4999302;28;20054;-37
2023/10/06 11:20:21;;;;;;;6.47;2.67;;;;;;;21.46;53.34;102364.59;5005732;28;20044;-37
2023/10/06 11:23:00;;;;;;;7.90;2.80;;;;;;;21.47;53.48;102367.19;5002762;28;20045;-37
2023/10/06 11:25:29;;;;;;;3.67;2.17;;;;;;;21.49;53.32;102361.63;5005961;28;20152;-37
2023/10/06 11:28:04;;;;;;;7.95;2.47;;;;;;;21.49;53.04;102357.09;5007126;28;20082;-37
2023/10/06 11:30:33;;;;;;;7.45;2.05;;;;;;;21.51;53.11;102362.34;5002373;28;20370;-37
2023/10/06 11:33:02;;;;;;;5.03;2.40;;;;;;;21.52;53.14;102358.66;5003135;28;20057;-37
2023/10/06 11:35:33;;;;;;;5.18;2.40;;;;;;;21.53;52.91;102350.41;5001840;28;20147;-37
2023/10/06 11:38:02;;;;;;;4.38;2.25;;;;;;;;;;5003233;28;20714;-37
2023/10/06 11:40:31;;;;;;;7.40;2.67;;;;;;;21.56;53.36;102355.53;5005618;28;20116;-37
2023/10/06 11:43:11;;;;;;;5.43;2.45;;;;;;;21.57;53.11;102362.63;5007524;28;20152;-37
2023/10/06 11:45:41;;;;;;;7.60;2.45;;;;;;;21.58;52.99;102350.84;5007723;28;20065;-37
2023/10/06 11:48:24;;;;;;;4.13;2.20;;;;;;;21.59;53.24;102349.03;5006459;28;20382;-37
2023/10/06 11:50:59;;;;;;;;;;;;;;;21.59;53.37;102355.25;5002816;28;20101;-37
2023/10/06 11:53:26;;;;;;;5.25;2.08;;;;;;;21.64;52.90;102349.44;5000107;28;19972;-37
2023/10/06 11:56:07;;;;;;;6.38;2.42;;;;;;;21.63;53.08;102348.59;5004388;28;20046;-38
2023/10/06 11:58:39;;;;;;;6.10;2.40;;;;;;;21.66;53.23;102347.44;5000958;28;20057;-37